Time;durP1;ratioP1;P1;durP2;ratioP2;P2;SDS_P1;SDS_P2;PMS_P1;PMS_P2;Temp;Humidity;BMP_temperature;BMP_pressure;BME280_temperature;BME280_humidity;BME280_pressure;Samples;Min_cycle;Max_cycle;Signal;HPM_P1;HPM_P2
2021/09/03 00:02:20;;;;;;;5.85;4.00;;;;;;;22.22;43.28;100593.47;4959542;28;20038;-71
2021/09/03 00:04:45;;;;;;;4.18;3.47;;;;;;;22.17;43.16;100588.28;4959802;28;20161;-71
2021/09/03 00:07:11;;;;;;;5.35;3.55;;;;;;;22.19;43.45;100580.16;4959961;28;20022;-72
2021/09/03 00:09:37;;;;;;;3.67;3.38;;;;;;;22.14;43.43;100572.16;4959697;28;20031;-71
2021/09/03 00:12:05;;;;;;;4.80;3.45;;;;;;;22.19;43.08;100571.66;4959358;28;20195;-72
2021/09/03 00:14:31;;;;;;;3.13;2.90;;;;;;;22.11;43.42;100573.81;4959659;28;20053;-71
2021/09/03 00:16:57;;;;;;;3.67;3.30;;;;;;;22.23;43.24;100561.06;4959575;28;20442;-71
2021/09/03 00:19:22;;;;;;;6.05;3.15;;;;;;;22.22;43.49;100567.97;4959123;28;20137;-72
2021/09/03 00:21:48;;;;;;;3.65;3.28;;;;;;;22.20;42.82;100565.53;4959714;28;20031;-71
2021/09/03 00:24:14;;;;;;;8.27;3.80;;;;;;;22.28;42.80;100571.91;4959161;28;20062;-71
2021/09/03 00:26:40;;;;;;;3.67;2.88;;;;;;;22.15;43.11;100556.75;4959658;28;20023;-71
2021/09/03 00:29:05;;;;;;;3.03;2.83;;;;;;;22.15;42.96;100562.41;4959356;28;20081;-71
2021/09/03 00:31:31;;;;;;;3.88;2.50;;;;;;;22.08;42.93;100551.19;4958959;28;20062;-71
2021/09/03 00:33:56;;;;;;;3.85;3.05;;;;;;;22.09;43.03;100552.78;4958962;28;20046;-70
2021/09/03 00:36:22;;;;;;;3.60;2.45;;;;;;;22.13;41.89;100551.50;4958620;28;20027;-71
2021/09/03 00:38:48;;;;;;;3.80;3.05;;;;;;;22.13;42.03;100543.00;4959161;28;20034;-70
2021/09/03 00:41:13;;;;;;;2.72;2.53;;;;;;;22.14;42.83;100543.81;4943443;28;20042;-72
2021/09/03 00:43:39;;;;;;;2.83;2.63;;;;;;;22.14;41.95;100538.16;4958553;28;20030;-71
2021/09/03 00:46:04;;;;;;;3.67;2.97;;;;;;;22.18;42.77;100538.88;4958725;28;20058;-71
2021/09/03 00:48:30;;;;;;;2.60;2.40;;;;;;;22.15;42.42;100534.06;4958714;28;20034;-72
2021/09/03 00:50:56;;;;;;;2.53;2.17;;;;;;;22.15;42.40;100540.53;4958351;28;20026;-72
2021/09/03 00:53:23;;;;;;;3.95;2.67;;;;;;;22.17;41.75;100532.41;4959155;28;20041;-69
2021/09/03 00:55:50;;;;;;;2.67;2.47;;;;;;;22.15;41.81;100536.91;4958579;28;20034;-70
2021/09/03 00:58:20;;;;;;;4.07;2.63;;;;;;;22.08;41.82;100546.31;4958827;28;20109;-71
2021/09/03 01:00:46;;;;;;;3.20;2.45;;;;;;;22.10;42.21;100549.53;4958983;28;20031;-71
2021/09/03 01:03:14;;;;;;;2.63;2.42;;;;;;;22.10;42.15;100538.19;4942211;28;20031;-70
2021/09/03 01:05:40;;;;;;;2.90;2.53;;;;;;;22.18;41.11;100538.88;4958331;28;20022;-72
2021/09/03 01:08:06;;;;;;;2.58;2.38;;;;;;;22.08;42.04;100540.66;4958340;28;20038;-71
2021/09/03 01:10:33;;;;;;;4.78;2.30;;;;;;;22.10;41.91;100543.03;4958325;28;20026;-70
2021/09/03 01:12:59;;;;;;;2.30;2.10;;;;;;;22.11;41.34;100542.66;4958212;28;20034;-71
2021/09/03 01:15:25;;;;;;;3.83;2.60;;;;;;;22.04;41.42;100533.44;4958227;28;20126;-72
2021/09/03 01:17:50;;;;;;;3.17;1.98;;;;;;;22.05;41.63;100535.03;4958099;28;20030;-71
2021/09/03 01:20:16;;;;;;;2.65;2.17;;;;;;;21.93;41.81;100523.09;4957407;28;20056;-70
2021/09/03 01:22:42;;;;;;;3.45;2.45;;;;;;;22.00;41.35;100530.69;4957571;28;20031;-72
2021/09/03 01:25:08;;;;;;;2.10;1.83;;;;;;;21.90;42.25;100520.34;4941311;28;20046;-70
2021/09/03 01:27:33;;;;;;;2.20;2.00;;;;;;;21.91;41.93;100519.91;4957421;28;20030;-71
2021/09/03 01:29:59;;;;;;;3.38;1.80;;;;;;;21.88;42.68;100531.31;4957786;28;20522;-70
2021/09/03 01:32:24;;;;;;;2.00;1.90;;;;;;;21.96;41.74;100525.09;4957453;28;20426;-70
2021/09/03 01:34:50;;;;;;;2.25;2.05;;;;;;;21.91;41.67;100528.41;4957196;28;20031;-70
2021/09/03 01:37:16;;;;;;;2.13;1.92;;;;;;;21.92;42.13;100526.38;4957119;28;20126;-72
2021/09/03 01:39:41;;;;;;;3.65;2.50;;;;;;;21.98;41.89;100531.09;4957053;28;20065;-69
2021/09/03 01:42:07;;;;;;;2.38;2.17;;;;;;;21.96;41.48;100527.13;4957137;28;20034;-70
2021/09/03 01:44:32;;;;;;;2.92;1.88;;;;;;;22.06;41.06;100528.97;4941275;28;20047;-70
2021/09/03 01:46:58;;;;;;;2.67;2.47;;;;;;;21.98;41.57;100527.47;4957245;28;20082;-71
2021/09/03 01:49:24;;;;;;;3.88;2.40;;;;;;;21.95;41.69;100532.00;4957501;28;20560;-71
2021/09/03 01:51:50;;;;;;;1.95;1.85;;;;;;;22.00;41.42;100532.69;4957205;28;20038;-71
2021/09/03 01:54:16;;;;;;;2.20;1.80;;;;;;;22.06;41.41;100531.00;4956840;28;20093;-72
2021/09/03 01:56:43;;;;;;;2.10;1.77;;;;;;;22.09;40.80;100528.06;4956789;28;20031;-72
2021/09/03 01:59:08;;;;;;;3.08;2.30;;;;;;;22.06;41.00;100528.97;4957340;28;20459;-70
2021/09/03 02:01:34;;;;;;;3.85;1.73;;;;;;;22.08;40.64;100520.81;4957102;28;20030;-71
2021/09/03 02:03:59;;;;;;;2.13;2.03;;;;;;;22.11;41.16;100536.19;4957342;28;20532;-70
2021/09/03 02:06:25;;;;;;;2.20;2.00;;;;;;;22.10;41.30;100526.88;4956371;28;20409;-72
2021/09/03 02:08:50;;;;;;;2.30;2.10;;;;;;;22.02;41.26;100533.09;4957245;28;20117;-71
2021/09/03 02:11:16;;;;;;;1.90;1.80;;;;;;;22.06;41.35;100531.78;4956619;28;20397;-70
2021/09/03 02:13:41;;;;;;;1.80;1.55;;;;;;;22.09;40.96;100516.75;4956592;28;20031;-70
2021/09/03 02:16:07;;;;;;;2.15;1.95;;;;;;;22.05;41.13;100520.88;4955438;28;20044;-70
2021/09/03 02:18:32;;;;;;;2.42;1.90;;;;;;;21.98;41.17;100508.44;4956568;28;20035;-70
2021/09/03 02:20:59;;;;;;;4.88;1.85;;;;;;;22.06;40.85;100492.13;4910215;28;1380373;-71
2021/09/03 02:23:24;;;;;;;3.38;2.53;;;;;;;22.17;40.42;100500.44;4957431;28;20054;-70
2021/09/03 02:25:50;;;;;;;2.33;2.08;;;;;;;22.17;40.82;100498.41;4957399;28;20035;-69
2021/09/03 02:28:16;;;;;;;2.67;1.98;;;;;;;22.12;41.04;100501.75;4957185;28;20536;-69
2021/09/03 02:30:43;;;;;;;2.72;2.33;;;;;;;22.07;41.38;100507.09;4957178;28;20093;-70
2021/09/03 02:33:08;;;;;;;2.95;2.70;;;;;;;21.79;41.99;100483.75;4957759;28;20027;-70
2021/09/03 02:35:34;;;;;;;2.40;2.20;;;;;;;21.90;42.13;100507.00;4957149;28;20371;-70
2021/09/03 02:38:00;;;;;;;2.80;2.33;;;;;;;21.93;42.25;100503.28;4957658;28;20031;-71
2021/09/03 02:40:27;;;;;;;3.03;2.03;;;;;;;21.91;42.18;100507.78;4957035;28;20482;-69
2021/09/03 02:42:52;;;;;;;3.03;2.40;;;;;;;21.78;42.39;100490.59;4941337;28;20035;-72
2021/09/03 02:45:18;;;;;;;3.53;2.75;;;;;;;21.83;42.63;100506.31;4957344;28;20116;-71
2021/09/03 02:47:44;;;;;;;2.53;2.30;;;;;;;21.80;42.35;100510.03;4957535;28;20031;-72
2021/09/03 02:50:09;;;;;;;2.72;2.22;;;;;;;21.80;42.62;100513.66;4956998;28;20034;-71
2021/09/03 02:52:36;;;;;;;3.63;2.20;;;;;;;21.78;42.44;100515.31;4957481;28;20072;-70
2021/09/03 02:55:02;;;;;;;2.90;2.70;;;;;;;21.74;42.27;100518.22;4957230;28;20510;-72
2021/09/03 02:57:28;;;;;;;3.33;2.88;;;;;;;21.71;42.46;100517.03;4957093;28;20023;-71
2021/09/03 02:59:53;;;;;;;5.82;2.85;;;;;;;21.68;42.47;100505.78;4957227;28;20041;-71
2021/09/03 03:02:19;;;;;;;5.10;2.28;;;;;;;21.66;43.19;100509.03;4957218;28;20520;-71
2021/09/03 03:04:44;;;;;;;2.75;2.35;;;;;;;21.68;42.70;100517.09;4957098;28;20050;-70
2021/09/03 03:07:10;;;;;;;2.42;2.22;;;;;;;21.64;42.72;100511.50;4956853;28;20026;-71
2021/09/03 03:09:36;;;;;;;3.65;2.35;;;;;;;21.69;42.65;100513.03;4957381;28;20075;-70
2021/09/03 03:12:02;;;;;;;2.58;2.25;;;;;;;21.67;42.31;100515.47;4957398;28;20390;-72
2021/09/03 03:14:28;;;;;;;2.42;2.22;;;;;;;21.62;42.49;100496.16;4957057;28;20042;-69
2021/09/03 03:16:57;;;;;;;2.47;2.03;;;;;;;21.57;42.81;100493.81;4957106;28;20205;-71
2021/09/03 03:19:24;;;;;;;3.47;2.92;;;;;;;21.60;42.67;100498.63;4956598;28;20050;-70
2021/09/03 03:21:49;;;;;;;2.67;2.45;;;;;;;21.58;42.71;100501.09;4957211;28;20495;-70
2021/09/03 03:24:15;;;;;;;3.70;2.33;;;;;;;21.69;42.12;100484.72;4957015;28;20099;-72
2021/09/03 03:26:41;;;;;;;3.17;2.30;;;;;;;21.62;42.31;100490.50;4957261;28;20508;-70
2021/09/03 03:29:06;;;;;;;4.13;2.25;;;;;;;21.60;42.83;100495.81;4960387;28;20030;-71
2021/09/03 03:31:32;;;;;;;3.05;2.47;;;;;;;21.68;42.19;100483.13;4960395;28;20509;-73
2021/09/03 03:34:01;;;;;;;3.90;3.60;;;;;;;21.66;42.20;100491.25;4960017;28;20023;-71
2021/09/03 03:36:27;;;;;;;4.53;2.70;;;;;;;21.63;41.98;100489.28;4960464;28;20038;-71
2021/09/03 03:38:53;;;;;;;3.80;2.25;;;;;;;21.47;41.83;100466.53;4959996;28;20052;-70
2021/09/03 03:41:18;;;;;;;3.85;2.22;;;;;;;21.62;41.90;100484.84;4959680;28;20035;-70
2021/09/03 03:43:44;;;;;;;4.47;2.90;;;;;;;21.66;42.08;100494.88;4959754;28;20030;-70
2021/09/03 03:46:09;;;;;;;7.18;2.47;;;;;;;21.69;42.15;100490.38;4959771;28;20030;-71
2021/09/03 03:48:35;;;;;;;2.40;2.20;;;;;;;21.70;41.66;100486.31;4959843;28;20058;-70
2021/09/03 03:51:01;;;;;;;6.00;2.55;;;;;;;21.71;41.45;100479.41;4959704;28;20070;-71
2021/09/03 03:53:26;;;;;;;2.45;2.25;;;;;;;21.74;41.26;100472.91;4959708;28;20118;-69
2021/09/03 03:55:52;;;;;;;2.70;2.10;;;;;;;21.74;41.42;100478.56;4959923;28;20130;-70
2021/09/03 03:58:17;;;;;;;2.35;2.10;;;;;;;21.70;41.46;100480.66;4959791;28;20030;-70
2021/09/03 04:00:44;;;;;;;4.65;2.30;;;;;;;21.71;41.23;100480.22;4959783;28;20072;-70
2021/09/03 04:03:09;;;;;;;2.80;2.60;;;;;;;21.73;41.74;100479.78;4959511;28;20031;-70
2021/09/03 04:05:35;;;;;;;3.35;3.05;;;;;;;21.76;41.42;100478.91;4944122;28;20129;-69
2021/09/03 04:08:01;;;;;;;2.10;2.00;;;;;;;21.83;40.77;100478.78;4959373;28;20109;-71
2021/09/03 04:10:26;;;;;;;2.40;2.20;;;;;;;21.75;41.29;100485.81;4959652;28;20035;-72
2021/09/03 04:12:52;;;;;;;2.30;2.10;;;;;;;21.76;41.18;100486.63;4959603;28;20057;-70
2021/09/03 04:15:19;;;;;;;2.35;2.15;;;;;;;21.79;40.73;100486.56;4959037;28;20485;-71
2021/09/03 04:17:45;;;;;;;2.53;2.17;;;;;;;21.76;40.64;100490.25;4959476;28;20426;-71
2021/09/03 04:20:10;;;;;;;1.95;1.80;;;;;;;21.84;40.92;100497.41;4958514;28;20486;-71
2021/09/03 04:22:36;;;;;;;3.30;1.98;;;;;;;21.79;41.16;100495.06;4959287;28;20062;-70
2021/09/03 04:25:04;;;;;;;2.00;1.90;;;;;;;21.86;40.46;100503.41;4959678;28;20125;-71
2021/09/03 04:27:29;;;;;;;4.57;2.53;;;;;;;21.81;40.89;100503.91;4958842;28;20103;-70
2021/09/03 04:29:55;;;;;;;3.55;2.55;;;;;;;21.80;41.07;100498.69;4959618;28;20047;-71
2021/09/03 04:32:20;;;;;;;2.13;1.92;;;;;;;21.82;40.83;100487.72;4959252;28;20374;-70
2021/09/03 04:34:46;;;;;;;3.30;2.08;;;;;;;21.81;41.31;100475.59;4958988;28;20398;-70
2021/09/03 04:37:12;;;;;;;2.88;2.20;;;;;;;21.79;41.54;100472.41;4959069;28;20027;-71
2021/09/03 04:39:39;;;;;;;2.00;1.88;;;;;;;21.80;41.77;100479.66;4957965;28;20474;-70
2021/09/03 04:42:04;;;;;;;2.55;1.85;;;;;;;21.90;41.38;100478.66;4943121;28;20054;-71
2021/09/03 04:44:30;;;;;;;4.85;2.53;;;;;;;21.93;41.05;100488.31;4958516;28;20090;-69
2021/09/03 04:46:56;;;;;;;2.92;2.22;;;;;;;21.95;41.21;100492.34;4958665;28;20031;-71
2021/09/03 04:49:21;;;;;;;5.47;2.30;;;;;;;21.92;41.18;100492.38;4958698;28;20030;-70
2021/09/03 04:51:47;;;;;;;2.67;2.30;;;;;;;21.94;41.22;100489.91;4958945;28;20089;-70
2021/09/03 04:54:12;;;;;;;3.08;2.20;;;;;;;21.91;41.26;100497.25;4958651;28;20031;-71
2021/09/03 04:56:38;;;;;;;2.72;2.53;;;;;;;21.93;41.15;100500.44;4957962;28;20121;-69
2021/09/03 04:59:05;;;;;;;2.75;2.30;;;;;;;22.07;41.05;100504.25;4958549;28;20473;-71
2021/09/03 05:01:31;;;;;;;2.97;2.67;;;;;;;22.03;41.32;100500.69;4958751;28;20165;-71
2021/09/03 05:03:56;;;;;;;3.83;2.38;;;;;;;22.06;41.67;100511.97;4958636;28;20522;-71
2021/09/03 05:06:22;;;;;;;3.35;2.47;;;;;;;22.11;41.23;100517.16;4958664;28;20058;-71
2021/09/03 05:08:47;;;;;;;5.32;3.00;;;;;;;22.20;41.14;100502.41;4958325;28;20038;-71
2021/09/03 05:11:13;;;;;;;7.70;2.40;;;;;;;22.24;41.42;100511.63;4975389;28;20058;-71
2021/09/03 05:13:41;;;;;;;3.05;2.60;;;;;;;22.32;40.83;100510.28;4958261;28;20047;-72
2021/09/03 05:16:07;;;;;;;3.17;2.45;;;;;;;22.40;40.92;100520.22;4958176;28;20313;-70
2021/09/03 05:18:32;;;;;;;4.30;2.53;;;;;;;22.31;40.82;100514.31;4957872;28;20034;-70
2021/09/03 05:20:58;;;;;;;6.32;2.40;;;;;;;22.44;40.45;100523.78;4957982;28;20053;-71
2021/09/03 05:23:24;;;;;;;2.85;2.63;;;;;;;22.41;40.49;100518.19;4958620;28;20030;-71
2021/09/03 05:25:49;;;;;;;4.65;2.83;;;;;;;22.30;40.27;100512.72;4958221;28;20027;-71
2021/09/03 05:28:15;;;;;;;2.60;2.40;;;;;;;22.34;40.46;100504.94;4958158;28;20057;-71
2021/09/03 05:30:41;;;;;;;6.60;2.60;;;;;;;22.36;40.44;100510.97;4957866;28;20031;-70
2021/09/03 05:33:06;;;;;;;4.65;3.38;;;;;;;22.44;40.43;100506.78;4958398;28;20180;-71
2021/09/03 05:35:32;;;;;;;3.28;2.80;;;;;;;22.52;40.07;100515.13;4958064;28;20568;-70
2021/09/03 05:38:00;;;;;;;3.40;3.10;;;;;;;22.64;40.04;100520.16;4957950;28;20037;-69
2021/09/03 05:40:25;;;;;;;11.88;4.10;;;;;;;22.67;39.69;100519.25;4957872;28;20034;-70
2021/09/03 05:42:51;;;;;;;5.85;3.50;;;;;;;22.74;39.97;100519.91;4958209;28;20153;-69
2021/09/03 05:45:16;;;;;;;5.07;3.65;;;;;;;22.61;39.79;100515.34;4957784;28;20544;-69
2021/09/03 05:47:43;;;;;;;3.97;3.42;;;;;;;22.64;40.15;100503.13;4957557;28;20173;-71
2021/09/03 05:50:10;;;;;;;8.00;4.55;;;;;;;22.84;39.78;100508.75;4957627;28;20046;-71
2021/09/03 05:52:36;;;;;;;9.93;4.45;;;;;;;22.94;39.57;100516.25;4941659;28;20038;-70
2021/09/03 05:55:02;;;;;;;5.30;4.70;;;;;;;23.12;39.13;100515.88;4957713;28;20386;-71
2021/09/03 05:57:28;;;;;;;7.28;5.05;;;;;;;23.20;38.80;100523.75;4957420;28;20027;-70
2021/09/03 05:59:53;;;;;;;7.50;4.90;;;;;;;23.90;37.53;100525.28;4957478;28;20045;-71
2021/09/03 06:02:19;;;;;;;9.60;5.75;;;;;;;24.06;37.16;100518.78;4957875;28;20087;-70
2021/09/03 06:04:44;;;;;;;10.98;6.05;;;;;;;24.06;37.41;100527.31;4957475;28;20058;-70
2021/09/03 06:07:13;;;;;;;7.15;5.18;;;;;;;24.11;37.20;100523.13;4957492;28;20518;-70
2021/09/03 06:09:38;;;;;;;7.43;5.60;;;;;;;23.93;36.52;100535.78;4957158;28;20042;-71
2021/09/03 06:12:05;;;;;;;10.98;6.13;;;;;;;24.00;36.83;100537.63;4957557;28;20038;-71
2021/09/03 06:14:30;;;;;;;8.25;5.93;;;;;;;23.91;36.79;100526.88;4957435;28;20031;-69
2021/09/03 06:16:56;;;;;;;10.77;6.70;;;;;;;23.95;37.50;100533.28;4956623;28;20207;-71
2021/09/03 06:19:21;;;;;;;8.93;5.53;;;;;;;23.82;36.77;100529.56;4956956;28;20083;-70
2021/09/03 06:21:48;;;;;;;10.65;5.50;;;;;;;23.88;37.14;100533.47;4957078;28;20090;-70
2021/09/03 06:24:30;;;;;;;9.55;5.85;;;;;;;23.85;36.89;100540.03;4957644;28;20035;-71
2021/09/03 06:27:01;;;;;;;8.75;5.72;;;;;;;23.91;37.11;100541.09;4956992;28;20027;-70
2021/09/03 06:29:43;;;;;;;9.50;5.28;;;;;;;23.93;36.52;100547.13;4957063;28;20458;-71
2021/09/03 06:32:11;;;;;;;8.85;5.70;;;;;;;24.12;36.23;100553.13;4956834;28;20046;-71
2021/09/03 06:34:40;;;;;;;7.43;5.70;;;;;;;24.26;35.91;100542.19;4957056;28;20030;-72
2021/09/03 06:37:06;;;;;;;8.48;5.85;;;;;;;24.24;35.92;100546.72;4956781;28;20027;-71
2021/09/03 06:39:32;;;;;;;9.55;5.82;;;;;;;24.37;35.17;100538.28;4957569;28;20105;-72
2021/09/03 06:41:58;;;;;;;7.47;6.00;;;;;;;23.99;35.36;100553.06;4957063;28;20536;-72
2021/09/03 06:44:24;;;;;;;8.27;5.15;;;;;;;24.39;35.43;100549.97;4974245;28;20038;-72
2021/09/03 06:46:51;;;;;;;10.60;6.38;;;;;;;24.56;35.16;100549.50;4957441;28;20030;-71
2021/09/03 06:49:17;;;;;;;8.77;5.72;;;;;;;24.72;34.58;100567.75;4956757;28;20023;-70
2021/09/03 06:51:43;;;;;;;7.63;6.38;;;;;;;24.93;34.65;100555.72;4957118;28;20042;-71
2021/09/03 06:54:08;;;;;;;10.77;6.32;;;;;;;24.95;34.03;100553.22;4956811;28;20125;-71
2021/09/03 06:56:34;;;;;;;7.78;5.68;;;;;;;25.20;33.23;100548.84;4956549;28;20139;-71
2021/09/03 06:59:00;;;;;;;9.93;5.90;;;;;;;25.57;32.85;100552.94;4956703;28;20097;-71
2021/09/03 07:01:26;;;;;;;7.75;6.10;;;;;;;25.90;32.48;100542.06;4957553;28;20168;-73
2021/09/03 07:03:52;;;;;;;6.97;5.72;;;;;;;26.83;31.33;100538.69;4960385;28;20510;-72
2021/09/03 07:06:17;;;;;;;10.45;6.35;;;;;;;27.57;29.82;100546.34;4960861;28;20025;-71
2021/09/03 07:08:43;;;;;;;9.05;6.13;;;;;;;28.35;28.91;100552.88;4960393;28;20391;-72
2021/09/03 07:11:08;;;;;;;11.48;5.82;;;;;;;27.64;29.58;100550.97;4961034;28;20077;-72
2021/09/03 07:13:37;;;;;;;8.45;5.95;;;;;;;27.52;29.44;100555.53;4960746;28;20093;-72
2021/09/03 07:16:03;;;;;;;8.60;5.47;;;;;;;27.37;30.36;100561.03;4960625;28;20049;-71
2021/09/03 07:18:28;;;;;;;7.90;5.70;;;;;;;26.84;30.85;100551.69;4960406;28;20127;-71
2021/09/03 07:20:54;;;;;;;9.77;6.20;;;;;;;26.64;31.45;100552.84;4959717;28;20581;-71
2021/09/03 07:23:19;;;;;;;10.85;6.75;;;;;;;26.90;31.36;100555.56;4960414;28;20058;-72
2021/09/03 07:25:45;;;;;;;13.40;6.55;;;;;;;26.94;31.72;100556.19;4960058;28;20426;-71
2021/09/03 07:28:11;;;;;;;12.02;6.30;;;;;;;27.52;31.07;100549.81;4959847;28;20050;-72
2021/09/03 07:30:36;;;;;;;11.27;6.40;;;;;;;27.60;30.82;100551.13;4960420;28;20038;-72
2021/09/03 07:33:05;;;;;;;7.43;5.63;;;;;;;27.36;30.77;100558.66;4960197;28;20566;-72
2021/09/03 07:35:30;;;;;;;12.30;6.00;;;;;;;26.76;31.75;100554.03;4959901;28;20030;-70
2021/09/03 07:37:56;;;;;;;7.63;6.25;;;;;;;26.51;32.38;100552.13;4960103;28;20077;-72
2021/09/03 07:40:22;;;;;;;8.90;5.78;;;;;;;26.70;32.33;100555.13;4959446;28;20435;-70
2021/09/03 07:42:49;;;;;;;10.45;5.65;;;;;;;27.17;31.33;100548.44;4959584;28;20031;-72
2021/09/03 07:45:15;;;;;;;6.82;5.95;;;;;;;27.48;31.07;100548.38;4959723;28;20031;-70
2021/09/03 07:47:40;;;;;;;9.85;6.18;;;;;;;27.49;31.02;100556.50;4959615;28;20066;-72
2021/09/03 07:50:07;;;;;;;8.68;6.05;;;;;;;27.39;31.27;100557.72;4959542;28;20070;-70
2021/09/03 07:52:32;;;;;;;10.57;6.50;;;;;;;27.36;31.19;100568.03;4959638;28;20039;-71
2021/09/03 07:54:58;;;;;;;8.13;7.13;;;;;;;27.43;31.64;100575.50;4960074;28;20034;-70
2021/09/03 07:57:23;;;;;;;9.98;6.68;;;;;;;28.21;29.84;100568.56;4959775;28;20558;-71
2021/09/03 07:59:49;;;;;;;7.85;5.85;;;;;;;29.56;28.04;100567.25;4960257;28;20540;-72
2021/09/03 08:02:14;;;;;;;12.25;7.15;;;;;;;29.86;27.72;100570.28;4959686;28;20386;-72
2021/09/03 08:04:40;;;;;;;10.38;8.18;;;;;;;29.39;28.41;100571.75;4959036;28;20037;-71
2021/09/03 08:07:06;;;;;;;9.77;7.88;;;;;;;29.49;27.73;100559.78;4959635;28;20050;-72
2021/09/03 08:09:31;;;;;;;10.05;6.57;;;;;;;29.15;28.40;100552.44;4959882;28;20356;-71
2021/09/03 08:11:57;;;;;;;9.40;6.45;;;;;;;29.05;27.85;100556.63;4959319;28;20037;-72
2021/09/03 08:14:22;;;;;;;9.98;6.75;;;;;;;28.85;28.71;100547.72;4959395;28;20037;-71
2021/09/03 08:16:48;;;;;;;10.77;7.35;;;;;;;28.75;29.15;100549.81;4958416;28;20561;-72
2021/09/03 08:19:14;;;;;;;9.95;5.53;;;;;;;28.54;29.06;100550.78;4958877;28;20058;-72
2021/09/03 08:21:40;;;;;;;9.38;5.75;;;;;;;28.36;29.26;100558.13;4959073;28;20038;-72
2021/09/03 08:24:06;;;;;;;6.47;5.13;;;;;;;28.47;29.60;100560.50;4958836;28;20043;-73
2021/09/03 08:26:33;;;;;;;6.82;5.63;;;;;;;28.73;29.57;100557.31;4959230;28;20034;-71
2021/09/03 08:28:59;;;;;;;7.45;4.50;;;;;;;28.56;28.50;100554.78;4959080;28;20066;-74
2021/09/03 08:31:27;;;;;;;6.10;3.67;;;;;;;28.55;28.62;100544.63;4958707;28;20030;-71
2021/09/03 08:33:53;;;;;;;5.35;4.15;;;;;;;28.81;27.88;100547.09;4958998;28;20039;-72
2021/09/03 08:36:18;;;;;;;9.43;4.38;;;;;;;28.82;28.59;100545.84;4958936;28;20081;-73
2021/09/03 08:38:44;;;;;;;8.18;4.63;;;;;;;29.16;28.34;100548.28;4959358;28;20038;-73
2021/09/03 08:41:10;;;;;;;6.38;4.60;;;;;;;29.98;28.05;100544.22;4958511;28;20027;-72
2021/09/03 08:43:36;;;;;;;7.70;4.60;;;;;;;30.00;27.57;100541.66;4958796;28;20077;-72
2021/09/03 08:46:02;;;;;;;5.88;3.80;;;;;;;30.29;26.95;100545.13;4959023;28;20082;-73
2021/09/03 08:48:27;;;;;;;6.65;3.58;;;;;;;31.01;25.96;100551.47;4958713;28;20095;-73
2021/09/03 08:50:56;;;;;;;4.72;3.88;;;;;;;30.32;27.07;100550.69;4958832;28;20425;-74
2021/09/03 08:53:23;;;;;;;4.88;3.38;;;;;;;30.59;26.82;100552.53;4958351;28;20037;-74
2021/09/03 08:55:54;;;;;;;5.18;3.00;;;;;;;30.96;25.98;100541.47;4958582;28;20034;-71
2021/09/03 08:58:20;;;;;;;5.07;3.45;;;;;;;30.66;26.02;100540.63;4958672;28;20031;-71
2021/09/03 09:01:12;;;;;;;7.45;2.70;;;;;;;30.94;26.28;100532.53;4958336;28;20026;-74
2021/09/03 09:03:46;;;;;;;2.70;2.50;;;;;;;31.93;25.63;100542.47;4975407;28;20034;-70
2021/09/03 09:06:20;;;;;;;5.65;3.95;;;;;;;32.20;24.57;100538.34;4958592;28;20322;-71
2021/09/03 09:08:54;;;;;;;5.90;4.05;;;;;;;32.02;24.48;100527.16;4958187;28;20049;-70
2021/09/03 09:11:19;;;;;;;3.70;3.40;;;;;;;31.76;25.20;100522.09;4958296;28;20035;-73
2021/09/03 09:13:46;;;;;;;3.63;3.30;;;;;;;31.58;25.92;100510.81;4958031;28;20093;-72
2021/09/03 09:16:19;;;;;;;5.70;3.15;;;;;;;32.12;25.20;100514.19;4958227;28;20034;-72
2021/09/03 09:18:50;;;;;;;4.65;3.10;;;;;;;32.61;24.73;100518.16;4957716;28;20050;-72
2021/09/03 09:21:30;;;;;;;4.05;3.53;;;;;;;33.17;24.22;100510.03;4957899;28;20082;-73
2021/09/03 09:24:04;;;;;;;3.92;3.08;;;;;;;33.37;23.70;100518.56;4958345;28;20410;-74
2021/09/03 09:26:51;;;;;;;4.25;3.80;;;;;;;33.60;23.48;100516.63;4957558;28;20030;-72
2021/09/03 09:29:29;;;;;;;4.50;3.47;;;;;;;33.12;23.99;100507.88;4957746;28;20027;-71
2021/09/03 09:32:04;;;;;;;3.55;3.22;;;;;;;32.86;23.97;100505.81;4957526;28;20027;-72
2021/09/03 09:34:32;;;;;;;6.25;3.30;;;;;;;33.41;23.59;100500.25;4958304;28;20082;-73
2021/09/03 09:37:05;;;;;;;4.65;3.60;;;;;;;33.56;23.73;100504.56;4958251;28;20062;-71
2021/09/03 09:39:45;;;;;;;5.60;3.67;;;;;;;33.30;24.02;100495.97;4957983;28;20362;-71
2021/09/03 09:42:29;;;;;;;4.25;3.40;;;;;;;33.45;23.63;100497.91;4957557;28;20117;-71
2021/09/03 09:45:09;;;;;;;5.95;3.70;;;;;;;33.19;24.14;100490.13;4974966;28;20178;-72
2021/09/03 09:47:37;;;;;;;5.95;3.75;;;;;;;32.71;24.81;100482.13;4958247;28;20081;-72
2021/09/03 09:50:23;;;;;;;3.63;3.33;;;;;;;33.66;23.59;100476.25;4974827;28;20062;-72
2021/09/03 09:52:49;;;;;;;5.80;3.88;;;;;;;33.30;24.03;100472.13;4957869;28;20347;-71
2021/09/03 09:55:14;;;;;;;4.60;3.65;;;;;;;32.93;24.28;100475.00;4941465;28;20152;-71
2021/09/03 09:57:41;;;;;;;4.38;3.60;;;;;;;31.88;25.31;100481.97;4957186;28;20092;-71
2021/09/03 10:00:08;;;;;;;9.73;3.58;;;;;;;31.26;26.23;100473.25;4957185;28;20466;-71
2021/09/03 10:02:37;;;;;;;4.45;3.60;;;;;;;30.95;26.83;100470.16;4956889;28;20034;-71
2021/09/03 10:05:04;;;;;;;3.80;3.35;;;;;;;30.35;28.02;100457.06;4957295;28;20165;-72
2021/09/03 10:10:52;;;;;;;6.55;4.03;;;;;;;30.74;27.49;100437.69;4974840;28;20449;-70
2021/09/03 10:13:19;;;;;;;8.10;3.88;;;;;;;31.26;27.02;100438.75;4974227;28;20034;-72
2021/09/03 10:15:47;;;;;;;5.07;3.45;;;;;;;31.76;25.95;100435.00;4957024;28;20501;-71
2021/09/03 10:18:14;;;;;;;4.10;3.42;;;;;;;32.23;25.59;100433.72;4957059;28;20042;-72
2021/09/03 10:20:41;;;;;;;7.13;3.90;;;;;;;31.69;26.07;100435.41;4956616;28;20125;-73
2021/09/03 10:23:07;;;;;;;4.97;4.13;;;;;;;31.67;25.91;100435.13;4956607;28;20027;-71
2021/09/03 10:25:52;;;;;;;6.15;3.78;;;;;;;32.62;24.67;100432.53;4956910;28;20034;-72
2021/09/03 10:28:25;;;;;;;7.30;3.97;;;;;;;32.95;24.17;100437.81;4957323;28;20027;-71
2021/09/03 10:31:07;;;;;;;5.53;3.20;;;;;;;32.24;24.77;100443.94;4957280;28;20117;-72
2021/09/03 10:33:42;;;;;;;6.22;3.35;;;;;;;32.11;25.13;100440.66;4956872;28;20114;-71
2021/09/03 10:36:10;;;;;;;7.70;3.78;;;;;;;32.06;25.10;100442.16;4957285;28;20039;-72
2021/09/03 10:38:44;;;;;;;7.60;3.22;;;;;;;32.86;24.32;100430.88;4961371;28;20502;-70
2021/09/03 10:41:45;;;;;;;4.57;3.85;;;;;;;33.57;23.83;100439.00;4961158;28;20058;-72
2021/09/03 10:44:11;;;;;;;4.15;3.63;;;;;;;33.96;23.13;100439.16;4961403;28;20034;-72
2021/09/03 10:46:44;;;;;;;5.70;3.50;;;;;;;34.10;23.46;100446.03;4960973;28;20355;-72
2021/09/03 10:49:15;;;;;;;8.32;4.07;;;;;;;34.60;22.94;100449.03;4960742;28;20034;-72
2021/09/03 10:51:50;;;;;;;4.68;3.40;;;;;;;35.02;21.87;100455.88;4960745;28;20121;-72
2021/09/03 10:54:21;;;;;;;4.25;3.15;;;;;;;35.08;22.31;100450.09;4978613;28;20054;-73
2021/09/03 10:56:57;;;;;;;5.82;3.60;;;;;;;35.28;22.09;100454.78;4960656;28;20125;-70
2021/09/03 10:59:24;;;;;;;4.60;3.50;;;;;;;35.24;21.55;100455.06;4960643;28;20052;-71
2021/09/03 11:01:56;;;;;;;3.83;3.10;;;;;;;35.32;21.46;100464.00;4961085;28;20470;-73
2021/09/03 11:04:25;;;;;;;4.50;3.58;;;;;;;35.01;21.87;100450.63;4960424;28;20488;-73
2021/09/03 11:07:02;;;;;;;6.55;3.58;;;;;;;35.30;21.66;100452.16;4960297;28;20466;-73
2021/09/03 11:09:32;;;;;;;5.10;3.50;;;;;;;35.05;22.59;100448.25;4978241;28;20034;-73
2021/09/03 11:12:02;;;;;;;3.75;3.38;;;;;;;34.40;23.11;100437.69;4960035;28;20050;-71
2021/09/03 11:14:33;;;;;;;7.75;3.72;;;;;;;34.34;22.89;100443.44;4960663;28;20516;-73
2021/09/03 11:17:11;;;;;;;4.85;3.63;;;;;;;34.70;23.19;100445.88;4960618;28;20383;-72
2021/09/03 11:19:49;;;;;;;4.35;3.05;;;;;;;33.85;24.11;100448.56;4960377;28;20055;-72
2021/09/03 11:22:19;;;;;;;8.02;3.58;;;;;;;33.70;23.96;100453.72;4960233;28;20114;-73
2021/09/03 11:24:53;;;;;;;4.40;3.15;;;;;;;34.17;23.50;100451.31;4978115;28;20394;-71
2021/09/03 11:27:30;;;;;;;4.50;3.47;;;;;;;34.13;23.60;100445.78;4977519;28;20027;-71
2021/09/03 11:30:13;;;;;;;4.13;3.08;;;;;;;34.62;23.21;100452.19;4978085;28;20031;-73